Time;durP1;ratioP1;P1;durP2;ratioP2;P2;SDS_P1;SDS_P2;PMS_P1;PMS_P2;Temp;Humidity;BMP_temperature;BMP_pressure;BME280_temperature;BME280_humidity;BME280_pressure;Samples;Min_cycle;Max_cycle;Signal;HPM_P1;HPM_P2
2022/08/06 00:01:17;;;;;;;;;;;;;;;28.62;39.05;100461.03;5113662;28;19911;-77
2022/08/06 00:04:01;;;;;;;;;;;;;;;28.54;39.16;100456.88;5096175;28;20283;-77
2022/08/06 00:06:46;;;;;;;;;;;;;;;28.60;38.85;100453.06;5103249;28;20487;-77
2022/08/06 00:09:30;;;;;;;;;;;;;;;28.64;38.89;100453.78;5115957;28;20368;-77
2022/08/06 00:12:14;;;;;;;;;;;;;;;28.69;38.92;100458.03;5116047;28;19912;-77
2022/08/06 00:15:00;;;;;;;;;;;;;;;28.69;38.96;100458.81;5102613;28;20287;-76
2022/08/06 00:17:47;;;;;;;;;;;;;;;28.64;38.67;100464.97;5103994;28;20289;-77
2022/08/06 00:20:31;;;;;;;;;;;;;;;28.56;38.89;100460.78;5115534;28;19933;-77
2022/08/06 00:23:16;;;;;;;;;;;;;;;28.51;39.61;100464.13;5094713;28;19912;-77
2022/08/06 00:26:01;;;;;;;;;;;;;;;28.48;39.89;100451.84;5093855;28;19916;-77
2022/08/06 00:28:46;;;;;;;;;;;;;;;28.42;39.77;100456.41;5108994;28;19911;-77
2022/08/06 00:31:30;;;;;;;;;;;;;;;28.40;39.87;100464.44;5115640;28;19911;-77
2022/08/06 00:34:15;;;;;;;;;;;;;;;28.33;40.36;100461.06;5116200;28;19912;-76
2022/08/06 00:37:00;;;;;;;;;;;;;;;28.28;40.16;100462.41;5113046;28;19912;-77
2022/08/06 00:39:44;;;;;;;;;;;;;;;28.29;40.04;100463.97;5103826;28;19911;-77
2022/08/06 00:42:29;;;;;;;;;;;;;;;28.27;40.37;100451.66;5106866;28;20388;-77
2022/08/06 00:45:13;;;;;;;;;;;;;;;28.26;39.96;100453.66;5115087;28;19915;-77
2022/08/06 00:47:58;;;;;;;;;;;;;;;28.25;40.11;100452.09;5091521;28;19916;-77
2022/08/06 00:50:43;;;;;;;;;;;;;;;28.22;40.01;100453.00;5095964;28;19912;-77
2022/08/06 00:53:28;;;;;;;;;;;;;;;28.21;40.39;100456.22;5094771;28;20365;-77
2022/08/06 00:56:12;;;;;;;;;;;;;;;28.20;39.98;100452.63;5106137;28;20392;-76
2022/08/06 00:58:56;;;;;;;;;;;;;;;28.23;40.57;100450.97;5110088;28;19912;-77
2022/08/06 01:01:41;;;;;;;;;;;;;;;28.23;40.76;100445.38;5107351;28;19912;-77
2022/08/06 01:04:25;;;;;;;;;;;;;;;28.32;40.74;100448.31;5105573;28;20296;-77
2022/08/06 01:07:09;;;;;;;;;;;;;;;28.26;41.18;100444.47;5114543;28;19916;-77
2022/08/06 01:09:54;;;;;;;;;;;;;;;28.21;41.19;100448.63;5110973;22;19920;-78
2022/08/06 01:12:38;;;;;;;;;;;;;;;28.20;40.64;100449.84;5113863;28;19916;-78
2022/08/06 01:15:24;;;;;;;;;;;;;;;28.18;40.83;100448.72;5118646;28;19912;-79
2022/08/06 01:18:11;;;;;;;;;;;;;;;28.19;40.47;100447.50;5109833;28;20284;-78
2022/08/06 01:21:15;;;;;;;;;;;;;;;28.18;40.35;100452.31;5115876;27;19912;-79
2022/08/06 01:24:09;;;;;;;;;;;;;;;28.17;40.51;100438.75;5112721;28;19912;-79
2022/08/06 01:27:00;;;;;;;;;;;;;;;28.22;40.42;100436.19;5113264;28;19916;-79
2022/08/06 01:29:48;;;;;;;;;;;;;;;28.31;40.12;100438.34;5111882;28;20296;-79
2022/08/06 01:32:37;;;;;;;;;;;;;;;28.40;40.01;100435.69;5112743;28;19912;-79
2022/08/06 01:35:27;;;;;;;;;;;;;;;28.64;39.74;100436.19;5117339;28;19919;-79
2022/08/06 01:38:22;;;;;;;;;;;;;;;28.36;39.80;100423.81;5117905;28;19912;-79
2022/08/06 01:41:08;;;;;;;;;;;;;;;28.12;40.07;100426.09;5125885;27;19911;-79
2022/08/06 01:43:53;;;;;;;;;;;;;;;28.10;40.35;100417.34;5119210;27;20296;-79
2022/08/06 01:46:40;;;;;;;;;;;;;;;28.10;40.17;100425.72;5111111;28;19920;-78
2022/08/06 01:49:27;;;;;;;;;;;;;;;28.11;40.25;100418.13;5118691;28;19912;-79
2022/08/06 01:52:12;;;;;;;;;;;;;;;28.06;40.22;100427.84;5119316;28;19911;-78
2022/08/06 01:54:58;;;;;;;;;;;;;;;28.16;40.25;100420.41;5119728;28;19915;-79
2022/08/06 01:57:45;;;;;;;;;;;;;;;28.17;40.47;100421.97;5115473;28;19920;-78
2022/08/06 02:00:30;;;;;;;;;;;;;;;27.89;41.60;100424.28;5118640;28;20384;-79
2022/08/06 02:03:21;;;;;;;;;;;;;;;27.97;41.12;100417.31;5127399;27;20547;-79
2022/08/06 02:06:07;;;;;;;;;;;;;;;28.08;41.59;100420.59;5119867;28;20380;-78
2022/08/06 02:08:53;;;;;;;;;;;;;;;28.20;41.34;100418.28;5117760;28;19911;-79
2022/08/06 02:11:39;;;;;;;;;;;;;;;28.21;41.36;100417.84;5119113;28;19912;-79
2022/08/06 02:14:25;;;;;;;;;;;;;;;28.09;41.22;100416.53;5119075;28;19912;-78
2022/08/06 02:17:15;;;;;;;;;;;;;;;28.14;41.27;100422.88;5108650;28;19911;-78
2022/08/06 02:20:00;;;;;;;;;;;;;;;28.18;41.46;100415.16;5112589;28;19911;-78
2022/08/06 02:22:46;;;;;;;;;;;;;;;28.28;41.35;100414.06;5110873;28;19912;-79
2022/08/06 02:25:31;;;;;;;;;;;;;;;28.18;41.62;100412.38;5119183;28;19915;-78
2022/08/06 02:28:16;;;;;;;;;;;;;;;28.14;41.75;100418.03;5124233;27;19930;-78
2022/08/06 02:31:01;;;;;;;;;;;;;;;28.18;41.54;100413.16;5112853;28;19912;-78
2022/08/06 02:33:46;;;;;;;;;;;;;;;28.14;41.34;100417.28;5116632;28;19911;-78
2022/08/06 02:36:38;;;;;;;;;;;;;;;28.07;42.03;100415.44;5116435;28;19911;-78
2022/08/06 02:39:24;;;;;;;;;;;;;;;28.01;42.10;100408.81;5114899;28;19912;-78
2022/08/06 02:42:17;;;;;;;;;;;;;;;28.00;42.13;100410.03;5113043;28;19912;-78
2022/08/06 02:45:05;;;;;;;;;;;;;;;27.97;42.55;100408.91;5116775;28;19912;-78
2022/08/06 02:48:08;;;;;;;;;;;;;;;27.81;44.10;100406.16;5110818;28;19916;-78
2022/08/06 02:50:53;;;;;;;;;;;;;;;27.01;45.34;100402.19;5115884;28;19915;-78
2022/08/06 02:53:42;;;;;;;;;;;;;;;27.13;45.53;100403.47;5104845;28;19916;-78
2022/08/06 02:56:27;;;;;;;;;;;;;;;27.36;44.27;100397.72;5112221;28;19911;-78
2022/08/06 02:59:14;;;;;;;;;;;;;;;27.71;43.91;100400.84;5114361;28;19912;-78
2022/08/06 03:02:01;;;;;;;;;;;;;;;27.86;43.14;100402.03;5112236;28;19911;-78
2022/08/06 03:04:47;;;;;;;;;;;;;;;28.00;42.09;100391.25;5114993;28;19912;-78
2022/08/06 03:07:33;;;;;;;;;;;;;;;27.82;42.48;100402.13;5116569;28;19916;-78
2022/08/06 03:10:20;;;;;;;;;;;;;;;27.87;42.25;100404.41;5123472;27;19915;-78
2022/08/06 03:13:06;;;;;;;;;;;;;;;27.86;42.34;100394.44;5116984;28;19912;-79
2022/08/06 03:15:50;;;;;;;;;;;;;;;27.75;42.50;100399.53;5116795;28;20380;-79
2022/08/06 03:18:36;;;;;;;;;;;;;;;27.74;42.65;100399.97;5104409;28;20400;-79
2022/08/06 03:21:21;;;;;;;;;;;;;;;27.69;42.41;100409.66;5106295;28;19911;-78
2022/08/06 03:24:07;;;;;;;;;;;;;;;27.70;41.82;100399.28;5111160;28;19916;-78
2022/08/06 03:26:53;;;;;;;;;;;;;;;27.79;41.20;100403.00;5118066;28;19915;-79
2022/08/06 03:29:40;;;;;;;;;;;;;;;27.86;40.82;100397.22;5117003;28;19915;-79
2022/08/06 03:32:25;;;;;;;;;;;;;;;27.73;40.84;100399.19;5118171;28;19915;-78
2022/08/06 03:35:10;;;;;;;;;;;;;;;27.40;42.28;100409.59;5117451;28;19912;-79
2022/08/06 03:37:55;;;;;;;;;;;;;;;27.19;44.23;100412.91;5114930;28;19912;-78
2022/08/06 03:40:42;;;;;;;;;;;;;;;27.20;44.70;100403.31;5111828;28;19912;-78
2022/08/06 03:43:27;;;;;;;;;;;;;;;27.06;44.64;100417.63;5106265;28;19912;-78
2022/08/06 03:46:13;;;;;;;;;;;;;;;26.74;45.42;100407.16;5109855;28;19916;-78
2022/08/06 03:48:59;;;;;;;;;;;;;;;26.67;45.00;100407.31;5104543;28;19920;-78
2022/08/06 03:51:45;;;;;;;;;;;;;;;26.78;44.76;100405.06;5108278;28;19911;-78
2022/08/06 03:54:31;;;;;;;;;;;;;;;26.89;44.95;100405.66;5115927;28;19920;-78
2022/08/06 03:57:18;;;;;;;;;;;;;;;26.90;44.49;100406.44;5114922;28;19911;-79
2022/08/06 04:00:03;;;;;;;;;;;;;;;26.83;44.45;100393.41;5106336;28;19912;-79
2022/08/06 04:02:57;;;;;;;;;;;;;;;26.73;45.21;100400.00;5108713;28;19913;-79
2022/08/06 04:05:42;;;;;;;;;;;;;;;26.81;45.11;100407.00;5115915;28;19916;-79
2022/08/06 04:08:26;;;;;;;;;;;;;;;27.12;45.05;100410.31;5117416;28;19912;-79
2022/08/06 04:11:11;;;;;;;;;;;;;;;27.43;45.16;100408.72;5115099;28;19912;-78
2022/08/06 04:13:57;;;;;;;;;;;;;;;27.53;44.68;100406.91;5133000;28;19911;-79
2022/08/06 04:16:42;;;;;;;;;;;;;;;27.41;45.15;100413.19;5118254;28;19912;-79
2022/08/06 04:19:27;;;;;;;;;;;;;;;27.48;45.33;100404.63;5116553;28;19911;-79
2022/08/06 04:22:11;;;;;;;;;;;;;;;27.43;44.87;100405.91;5102912;28;19911;-79
2022/08/06 04:24:56;;;;;;;;;;;;;;;27.42;45.93;100411.97;5111389;28;19911;-80
2022/08/06 04:27:42;;;;;;;;;;;;;;;27.18;46.11;100414.13;5110976;28;19916;-80
2022/08/06 04:30:28;;;;;;;;;;;;;;;26.72;45.24;100418.75;5125168;28;19915;-78
2022/08/06 04:33:14;;;;;;;;;;;;;;;25.65;49.93;100410.91;5095315;28;19912;-78
2022/08/06 04:36:04;;;;;;;;;;;;;;;25.84;49.79;100418.56;5095595;28;20319;-78
2022/08/06 04:38:49;;;;;;;;;;;;;;;26.71;47.52;100428.34;5098466;28;20372;-78
2022/08/06 04:41:34;;;;;;;;;;;;;;;26.82;46.69;100430.88;5105347;28;19912;-79
2022/08/06 04:44:19;;;;;;;;;;;;;;;26.60;47.56;100436.16;5107218;28;19912;-79
2022/08/06 04:47:04;;;;;;;;;;;;;;;27.24;46.29;100441.09;5113520;28;20291;-79
2022/08/06 04:49:49;;;;;;;;;;;;;;;27.66;45.26;100444.09;5118265;28;19912;-79
2022/08/06 04:52:33;;;;;;;;;;;;;;;27.73;44.19;100438.31;5107447;28;19912;-78
2022/08/06 04:55:19;;;;;;;;;;;;;;;26.61;46.69;100443.31;5118253;28;19915;-79
2022/08/06 04:58:05;;;;;;;;;;;;;;;26.52;47.54;100448.69;5118978;28;19912;-78
2022/08/06 05:00:50;;;;;;;;;;;;;;;27.31;46.11;100448.53;5112782;28;19912;-78
2022/08/06 05:03:34;;;;;;;;;;;;;;;27.39;44.70;100457.50;5110092;28;19911;-79
2022/08/06 05:06:22;;;;;;;;;;;;;;;27.61;46.54;100459.38;5111467;28;19916;-78
2022/08/06 05:09:09;;;;;;;;;;;;;;;27.55;45.90;100472.28;5114910;28;19912;-79
2022/08/06 05:12:02;;;;;;;;;;;;;;;27.73;45.59;100474.66;5115994;28;20380;-79
2022/08/06 05:14:49;;;;;;;;;;;;;;;27.90;44.85;100476.19;5105221;28;19912;-79
2022/08/06 05:17:37;;;;;;;;;;;;;;;27.73;45.56;100466.28;5125105;27;19916;-79
2022/08/06 05:20:22;;;;;;;;;;;;;;;27.55;45.67;100474.28;5115063;28;20372;-78
2022/08/06 05:23:09;;;;;;;;;;;;;;;27.71;45.20;100479.09;5110359;28;19920;-79
2022/08/06 05:25:54;;;;;;;;;;;;;;;27.83;44.12;100479.19;5110568;28;19919;-78
2022/08/06 05:28:39;;;;;;;;;;;;;;;28.02;44.26;100483.06;5112983;28;19912;-79
2022/08/06 05:31:39;;;;;;;;;;;;;;;28.14;44.33;100473.97;5117770;28;19931;-79
2022/08/06 05:34:24;;;;;;;;;;;;;;;28.13;44.06;100482.81;5121083;27;20320;-79
2022/08/06 05:37:08;;;;;;;;;;;;;;;28.19;43.55;100475.47;5140479;27;19911;-79
2022/08/06 05:39:53;;;;;;;;;;;;;;;28.40;43.63;100480.44;5108986;28;19912;-79
2022/08/06 05:42:37;;;;;;;;;;;;;;;28.52;43.42;100481.72;5110123;28;19912;-79
2022/08/06 05:45:22;;;;;;;;;;;;;;;28.57;43.12;100481.16;5113756;28;19912;-79
2022/08/06 05:48:07;;;;;;;;;;;;;;;28.67;43.45;100478.06;5114016;28;19916;-79
2022/08/06 05:50:54;;;;;;;;;;;;;;;28.83;42.56;100474.44;5113259;28;20276;-79
2022/08/06 05:53:47;;;;;;;;;;;;;;;28.83;43.13;100480.81;5105566;28;19916;-79
2022/08/06 05:56:45;;;;;;;;;;;;;;;28.83;42.90;100468.81;5114896;28;19911;-79
2022/08/06 05:59:31;;;;;;;;;;;;;;;28.96;42.73;100482.81;5109732;28;19919;-79
2022/08/06 06:02:18;;;;;;;;;;;;;;;29.02;42.79;100476.22;5113867;28;19912;-79
2022/08/06 06:05:02;;;;;;;;;;;;;;;29.10;42.38;100476.81;5106128;28;19912;-79
2022/08/06 06:07:47;;;;;;;;;;;;;;;29.09;41.89;100487.22;5112726;28;19916;-78
2022/08/06 06:10:33;;;;;;;;;;;;;;;29.31;40.85;100484.53;5117513;28;19911;-78
2022/08/06 06:13:19;;;;;;;;;;;;;;;29.51;40.19;100479.47;5106956;28;20304;-79
2022/08/06 06:16:19;;;;;;;;;;;;;;;29.75;38.66;100479.91;5099520;28;19912;-78
2022/08/06 06:19:04;;;;;;;;;;;;;;;30.01;37.78;100486.25;5106077;28;19912;-79
2022/08/06 06:21:56;;;;;;;;;;;;;;;30.17;36.37;100484.03;5104382;28;19941;-79
2022/08/06 06:24:57;;;;;;;;;;;;;;;29.99;37.64;100491.50;5107431;28;19919;-79
2022/08/06 06:27:49;;;;;;;;;;;;;;;30.15;37.45;100491.34;5107552;28;19915;-79
2022/08/06 06:30:45;;;;;;;;;;;;;;;30.06;38.45;100496.88;5112489;28;19911;-80
2022/08/06 06:33:39;;;;;;;;;;;;;;;30.14;36.59;100492.59;5115489;28;19919;-78
2022/08/06 06:36:50;;;;;;;;;;;;;;;30.28;36.32;100497.69;5118232;28;19911;-80
2022/08/06 06:39:41;;;;;;;;;;;;;;;30.23;37.99;100494.66;5118043;28;19911;-80
2022/08/06 06:42:29;;;;;;;;;;;;;;;30.64;37.57;100493.59;5117345;28;19919;-80
2022/08/06 06:45:36;;;;;;;;;;;;;;;30.68;38.31;100502.69;5109001;28;19912;-80
2022/08/06 06:48:25;;;;;;;;;;;;;;;31.28;36.96;100501.16;5118884;27;19919;-80
2022/08/06 06:51:13;;;;;;;;;;;;;;;31.58;36.99;100504.41;5116902;28;19911;-79
2022/08/06 06:53:58;;;;;;;;;;;;;;;31.58;36.78;100507.22;5125118;27;19945;-79
2022/08/06 06:56:45;;;;;;;;;;;;;;;31.72;36.30;100503.78;5116911;28;19923;-79
2022/08/06 06:59:32;;;;;;;;;;;;;;;31.91;34.51;100508.19;5107757;28;19919;-79
2022/08/06 07:02:19;;;;;;;;;;;;;;;32.16;34.48;100502.31;5102403;28;19912;-80
2022/08/06 07:05:05;;;;;;;;;;;;;;;32.17;31.90;100506.69;5106949;28;20300;-80
2022/08/06 07:07:51;;;;;;;;;;;;;;;32.16;34.51;100499.50;5102966;28;19920;-80
2022/08/06 07:10:35;;;;;;;;;;;;;;;32.53;33.75;100508.69;5095861;23;19924;-77
2022/08/06 07:13:20;;;;;;;;;;;;;;;32.68;32.82;100503.22;5084317;28;19931;-76
2022/08/06 07:16:05;;;;;;;;;;;;;;;33.38;30.77;100507.53;5083954;28;19916;-78
2022/08/06 07:18:53;;;;;;;;;;;;;;;33.52;31.53;100506.09;5087495;28;19911;-77
2022/08/06 07:21:41;;;;;;;;;;;;;;;34.08;29.50;100505.28;5112926;28;19915;-77
2022/08/06 07:24:30;;;;;;;;;;;;;;;35.08;27.56;100507.13;5102632;28;19931;-77
2022/08/06 07:27:15;;;;;;;;;;;;;;;35.90;27.08;100510.94;5100888;28;19916;-77
2022/08/06 07:30:00;;;;;;;;;;;;;;;36.00;26.77;100506.69;5099247;28;20514;-77
2022/08/06 07:32:46;;;;;;;;;;;;;;;36.69;25.47;100519.09;5116194;28;19911;-78
2022/08/06 07:35:31;;;;;;;;;;;;;;;37.04;24.08;100518.88;5109587;28;20368;-77
2022/08/06 07:38:17;;;;;;;;;;;;;;;38.56;23.25;100524.88;5101923;28;20392;-78
2022/08/06 07:41:03;;;;;;;;;;;;;;;38.61;21.58;100524.91;5107496;28;19915;-78
2022/08/06 07:43:51;;;;;;;;;;;;;;;38.89;22.17;100519.28;5105308;28;19915;-78
2022/08/06 07:46:41;;;;;;;;;;;;;;;39.03;22.42;100523.16;5110254;28;19915;-78
2022/08/06 07:49:29;;;;;;;;;;;;;;;38.74;21.52;100524.41;5114815;28;19912;-79
2022/08/06 07:52:15;;;;;;;;;;;;;;;39.10;21.61;100525.47;5106377;28;19994;-78
2022/08/06 07:55:00;;;;;;;;;;;;;;;38.86;23.08;100520.28;5112789;28;19911;-79
2022/08/06 07:57:45;;;;;;;;;;;;;;;39.56;20.90;100524.94;5115158;28;19916;-79
2022/08/06 08:00:29;;;;;;;;;;;;;;;39.76;21.17;100527.50;5112945;28;19919;-79
2022/08/06 08:06:20;;;;;;;;;;;;;;;40.46;20.08;100526.91;5113903;28;19915;-79
2022/08/06 08:09:16;;;;;;;;;;;;;;;40.11;19.87;100519.03;5104800;28;19912;-79
2022/08/06 08:12:01;;;;;;;;;;;;;;;41.04;19.71;100534.59;5103722;28;19911;-78
2022/08/06 08:14:46;;;;;;;;;;;;;;;39.80;21.32;100527.19;5107656;28;19912;-78
2022/08/06 08:17:31;;;;;;;;;;;;;;;41.12;19.21;100539.16;5100860;28;19915;-79
2022/08/06 08:20:16;;;;;;;;;;;;;;;40.85;18.62;100525.88;5099772;28;19935;-78
2022/08/06 08:23:03;;;;;;;;;;;;;;;40.79;18.34;100530.88;5112022;28;19912;-78
2022/08/06 08:25:49;;;;;;;;;;;;;;;42.03;16.82;100532.78;5113879;28;19915;-79
2022/08/06 08:28:33;;;;;;;;;;;;;;;41.87;15.80;100528.03;5114904;28;19916;-78
2022/08/06 08:31:18;;;;;;;;;;;;;;;42.35;16.09;100529.25;5108873;28;20329;-80
2022/08/06 08:34:03;;;;;;;;;;;;;;;41.90;15.37;100526.97;5109123;28;20312;-78
2022/08/06 08:36:48;;;;;;;;;;;;;;;42.86;15.71;100532.91;5105782;28;19915;-76
2022/08/06 08:39:32;;;;;;;;;;;;;;;41.65;14.98;100529.06;5115893;28;19911;-80
2022/08/06 08:42:19;;;;;;;;;;;;;;;42.40;13.16;100536.97;5112534;28;19915;-80
2022/08/06 08:45:05;;;;;;;;;;;;;;;42.12;13.82;100532.38;5107050;28;19919;-78
2022/08/06 08:47:50;;;;;;;;;;;;;;;41.97;14.19;100537.00;5109417;28;19916;-79
2022/08/06 08:50:35;;;;;;;;;;;;;;;41.67;14.40;100537.06;5109205;28;20433;-78
2022/08/06 08:53:25;;;;;;;;;;;;;;;41.62;16.41;100535.06;5105756;28;19916;-79
2022/08/06 08:56:11;;;;;;;;;;;;;;;41.02;16.53;100537.94;5102146;28;19915;-79
2022/08/06 08:58:56;;;;;;;;;;;;;;;41.16;17.04;100541.72;5101116;28;19916;-78
2022/08/06 09:01:40;;;;;;;;;;;;;;;41.69;15.42;100543.81;5111655;28;19912;-79
2022/08/06 09:04:26;;;;;;;;;;;;;;;41.98;14.51;100552.84;5116204;28;20296;-78
2022/08/06 09:07:10;;;;;;;;;;;;;;;43.35;13.82;100550.56;5117316;28;20368;-79
2022/08/06 09:09:55;;;;;;;;;;;;;;;42.80;14.93;100553.03;5108040;28;19915;-80
2022/08/06 09:12:41;;;;;;;;;;;;;;;42.35;15.53;100552.13;5113895;28;19912;-77
2022/08/06 09:15:25;;;;;;;;;;;;;;;40.27;17.93;100548.03;5109041;28;19911;-78
2022/08/06 09:18:10;;;;;;;;;;;;;;;37.21;21.55;100546.13;5106244;28;19912;-81
2022/08/06 09:20:55;;;;;;;;;;;;;;;35.85;23.52;100531.47;5111804;28;20288;-81
2022/08/06 09:23:40;;;;;;;;;;;;;;;34.80;25.29;100536.19;5109722;28;20396;-79
2022/08/06 09:26:24;;;;;;;;;;;;;;;34.08;26.71;100539.13;5108335;28;19911;-80
2022/08/06 09:29:20;;;;;;;;;;;;;;;33.45;27.29;100532.59;5108298;28;19912;-78
2022/08/06 09:32:06;;;;;;;;;;;;;;;33.04;28.57;100539.75;5106419;28;19912;-79
2022/08/06 09:34:51;;;;;;;;;;;;;;;32.96;28.20;100541.38;5109120;28;20288;-81
2022/08/06 09:37:36;;;;;;;;;;;;;;;32.96;28.37;100532.91;5103228;28;19935;-87
2022/08/06 09:40:21;;;;;;;;;;;;;;;32.75;28.90;100541.56;5107430;28;19911;-87
2022/08/06 09:43:05;;;;;;;;;;;;;;;32.94;28.03;100532.59;5114666;28;19912;-88
2022/08/06 09:45:50;;;;;;;;;;;;;;;32.66;28.74;100534.66;5098728;28;20381;-85
2022/08/06 09:48:34;;;;;;;;;;;;;;;32.73;28.51;100536.38;5103092;28;19915;-84
2022/08/06 09:51:22;;;;;;;;;;;;;;;32.43;29.51;100535.31;5109353;28;19912;-86
2022/08/06 09:54:09;;;;;;;;;;;;;;;32.24;29.76;100530.94;5111169;28;19915;-88
2022/08/06 09:56:58;;;;;;;;;;;;;;;32.45;29.23;100535.63;5112866;28;20492;-83
2022/08/06 09:59:44;;;;;;;;;;;;;;;32.37;29.48;100530.75;5103591;28;19911;-84
2022/08/06 10:02:32;;;;;;;;;;;;;;;32.60;28.33;100524.50;5106813;28;20304;-84
2022/08/06 10:05:17;;;;;;;;;;;;;;;32.60;29.26;100527.31;5117151;28;20368;-85
2022/08/06 10:08:07;;;;;;;;;;;;;;;32.44;29.39;100519.19;5103343;28;19916;-83
2022/08/06 10:10:51;;;;;;;;;;;;;;;32.57;29.25;100516.97;5101563;28;19911;-82
2022/08/06 10:13:38;;;;;;;;;;;;;;;32.28;29.72;100517.47;5098753;28;19911;-81
2022/08/06 10:16:29;;;;;;;;;;;;;;;32.24;29.58;100519.66;5104909;28;19911;-84
2022/08/06 10:19:16;;;;;;;;;;;;;;;32.09;30.01;100507.44;5109988;28;19911;-85
2022/08/06 10:22:05;;;;;;;;;;;;;;;32.04;30.23;100510.88;5114149;28;19912;-84
2022/08/06 10:24:50;;;;;;;;;;;;;;;32.14;30.18;100510.44;5103803;28;19912;-83
2022/08/06 10:27:35;;;;;;;;;;;;;;;32.22;30.18;100505.28;5102539;28;19915;-83
2022/08/06 10:30:20;;;;;;;;;;;;;;;32.14;30.30;100509.66;5102069;28;19926;-85
2022/08/06 10:33:06;;;;;;;;;;;;;;;32.09;30.51;100501.81;5111147;28;19912;-85
2022/08/06 10:35:52;;;;;;;;;;;;;;;31.94;30.97;100507.28;5110712;28;20300;-83
2022/08/06 10:38:38;;;;;;;;;;;;;;;31.91;31.01;100488.50;5101964;28;19923;-82
2022/08/06 10:41:22;;;;;;;;;;;;;;;31.84;31.13;100488.81;5114648;28;19912;-83
2022/08/06 10:44:08;;;;;;;;;;;;;;;31.89;31.14;100488.22;5110219;28;19912;-83
2022/08/06 10:46:53;;;;;;;;;;;;;;;32.13;30.86;100496.84;5107996;28;19920;-85
2022/08/06 10:49:38;;;;;;;;;;;;;;;31.99;31.22;100486.97;5108045;28;20272;-83
2022/08/06 10:52:22;;;;;;;;;;;;;;;31.86;31.53;100486.31;5106476;28;19912;-84
2022/08/06 10:55:08;;;;;;;;;;;;;;;31.80;31.67;100485.34;5116108;28;19912;-83
2022/08/06 10:57:53;;;;;;;;;;;;;;;31.97;31.22;100483.81;5112314;28;19915;-85
2022/08/06 11:00:39;;;;;;;;;;;;;;;32.04;31.15;100483.53;5110681;28;20384;-84
2022/08/06 11:03:38;;;;;;;;;;;;;;;31.85;31.89;100479.13;5112421;28;20383;-81
2022/08/06 11:06:35;;;;;;;;;;;;;;;31.97;31.53;100477.41;5113929;28;19912;-86
2022/08/06 11:09:38;;;;;;;;;;;;;;;32.61;29.66;100481.75;5122572;27;19919;-83
2022/08/06 11:12:34;;;;;;;;;;;;;;;33.09;29.22;100473.50;5104649;28;19911;-85
2022/08/06 11:15:19;;;;;;;;;;;;;;;33.44;28.03;100473.84;5101996;28;19912;-84
2022/08/06 11:18:05;;;;;;;;;;;;;;;33.70;27.83;100474.97;5107678;28;20392;-82
2022/08/06 11:20:50;;;;;;;;;;;;;;;33.84;28.23;100479.88;5106616;28;19912;-83
2022/08/06 11:23:34;;;;;;;;;;;;;;;33.93;28.58;100470.56;5106574;28;19912;-85
2022/08/06 20:35:00;;;;;;;;;;;;;;;29.33;40.68;100675.41;5721138;23;19925;-85
2022/08/06 20:37:45;;;;;;;;;;;;;;;29.14;41.42;100679.13;5001582;28;20313;-85
2022/08/06 20:40:30;;;;;;;;;;;;;;;29.04;42.19;100685.81;4981619;28;19922;-85
2022/08/06 20:43:17;;;;;;;;;;;;;;;29.00;42.13;100690.75;5007773;28;19917;-85
2022/08/06 20:46:01;;;;;;;;;;;;;;;29.00;42.46;100682.34;5009164;28;19917;-85
2022/08/06 20:48:46;;;;;;;;;;;;;;;28.95;43.18;100677.28;5070578;23;20380;-57
2022/08/06 20:51:30;;;;;;;;;;;;;;;28.95;42.75;100677.28;5013544;28;19921;-57
2022/08/06 20:54:15;;;;;;;;;;;;;;;29.07;42.58;100685.72;5019545;28;19921;-57
2022/08/06 20:56:59;;;;;;;;;;;;;;;29.14;42.20;100684.75;5014179;28;19917;-57
2022/08/06 20:59:44;;;;;;;;;;;;;;;29.13;42.20;100699.97;5014485;28;19917;-57
2022/08/06 21:02:28;;;;;;;;;;;;;;;29.19;42.18;100703.81;5025605;28;20276;-58
2022/08/06 21:05:14;;;;;;;;;;;;;;;29.14;42.51;100712.75;4998303;28;19914;-57
2022/08/06 21:07:59;;;;;;;;;;;;;;;29.08;42.43;100692.91;5005932;28;19913;-58
2022/08/06 21:10:45;;;;;;;;;;;;;;;29.14;42.13;100685.53;5013283;28;19917;-57
2022/08/06 21:13:30;;;;;;;;;;;;;;;28.87;42.34;100688.66;5006752;28;19913;-58
2022/08/06 21:16:14;;;;;;;;;;;;;;;29.06;42.34;100684.13;5013948;28;19913;-57
2022/08/06 21:19:00;;;;;;;;;;;;;;;29.07;42.26;100702.53;5011193;28;19914;-58
2022/08/06 21:21:44;;;;;;;;;;;;;;;29.10;41.67;100717.66;4989949;28;19913;-58
2022/08/06 21:24:31;;;;;;;;;;;;;;;28.98;42.20;100724.78;4999679;28;19913;-58
2022/08/06 21:27:16;;;;;;;;;;;;;;;28.90;42.29;100715.00;4996946;28;19914;-58
2022/08/06 21:30:03;;;;;;;;;;;;;;;28.89;41.99;100725.41;4995034;28;19918;-58
2022/08/06 21:32:48;;;;;;;;;;;;;;;28.87;42.30;100732.66;4994228;28;19913;-57
2022/08/06 21:35:32;;;;;;;;;;;;;;;28.90;42.54;100724.16;4982230;28;19929;-58
2022/08/06 21:38:17;;;;;;;;;;;;;;;28.88;42.61;100723.84;4995120;28;19913;-58
2022/08/06 21:41:26;;;;;;;;;;;;;;;28.97;42.53;100725.22;5027868;28;20304;-58
2022/08/06 21:44:07;;;;;;;;;;;;;;;28.97;42.63;100720.41;4997342;28;19914;-57
2022/08/06 21:46:52;;;;;;;;;;;;;;;28.91;42.58;100705.34;5020310;28;19917;-58
2022/08/06 21:49:37;;;;;;;;;;;;;;;28.86;43.14;100701.09;5009004;28;19917;-58
2022/08/06 21:52:22;;;;;;;;;;;;;;;28.85;42.77;100701.53;5013224;28;20369;-58
2022/08/06 21:55:08;;;;;;;;;;;;;;;28.84;42.82;100700.75;5012910;28;19913;-57
2022/08/06 21:57:53;;;;;;;;;;;;;;;28.95;42.22;100706.06;5013958;28;19913;-57
2022/08/06 22:00:43;;;;;;;;;;;;;;;29.00;42.23;100704.75;5018496;28;19914;-57
2022/08/06 22:03:28;;;;;;;;;;;;;;;28.97;42.13;100714.81;4999365;28;19914;-57
2022/08/06 22:06:12;;;;;;;;;;;;;;;28.99;42.71;100734.75;5012614;28;19919;-57
2022/08/06 22:08:56;;;;;;;;;;;;;;;28.97;42.59;100742.81;5012802;28;19918;-57
2022/08/06 22:11:41;;;;;;;;;;;;;;;28.94;42.82;100742.91;5019911;28;20100;-58
2022/08/06 22:14:26;;;;;;;;;;;;;;;29.04;42.38;100747.44;5019446;28;19913;-57
2022/08/06 22:17:11;;;;;;;;;;;;;;;29.03;42.59;100749.44;5012666;28;19913;-57
2022/08/06 22:19:56;;;;;;;;;;;;;;;28.99;42.80;100756.38;5018178;28;19913;-58
2022/08/06 22:22:40;;;;;;;;;;;;;;;28.95;42.57;100761.28;5028345;28;19913;-57
2022/08/06 22:25:26;;;;;;;;;;;;;;;28.95;42.91;100769.69;5019539;28;19913;-57
2022/08/06 22:28:11;;;;;;;;;;;;;;;29.00;42.67;100771.94;5021621;28;20380;-57
2022/08/06 22:30:55;;;;;;;;;;;;;;;28.88;42.89;100774.25;5013920;28;19917;-58
2022/08/06 22:33:40;;;;;;;;;;;;;;;28.96;42.73;100771.25;5015836;28;19913;-58
2022/08/06 22:36:26;;;;;;;;;;;;;;;28.96;42.49;100788.03;5012362;28;19913;-58
2022/08/06 22:39:10;;;;;;;;;;;;;;;28.92;42.78;100790.94;5017940;28;20288;-58
2022/08/06 22:41:55;;;;;;;;;;;;;;;28.99;42.56;100799.16;5020395;28;19913;-57
2022/08/06 22:44:39;;;;;;;;;;;;;;;28.88;42.86;100807.84;5011847;28;20296;-57
2022/08/06 22:47:24;;;;;;;;;;;;;;;28.89;42.90;100815.03;5014010;28;19916;-57
2022/08/06 22:50:08;;;;;;;;;;;;;;;28.93;42.41;100823.31;5013279;28;20442;-57
2022/08/06 22:52:56;;;;;;;;;;;;;;;28.93;42.23;100817.72;5012284;28;19914;-57
2022/08/06 22:55:40;;;;;;;;;;;;;;;28.89;42.74;100822.63;5011896;28;19918;-57
2022/08/06 22:58:25;;;;;;;;;;;;;;;28.79;42.94;100824.47;5012251;28;19913;-58
2022/08/06 23:01:10;;;;;;;;;;;;;;;28.87;43.20;100828.66;5012972;28;19913;-57
2022/08/06 23:03:54;;;;;;;;;;;;;;;28.95;42.92;100831.28;5027578;28;19912;-58
2022/08/06 23:06:39;;;;;;;;;;;;;;;28.82;43.11;100826.38;5019662;28;20280;-57
2022/08/06 23:09:24;;;;;;;;;;;;;;;28.49;43.47;100811.56;5014397;28;19917;-57
2022/08/06 23:12:11;;;;;;;;;;;;;;;28.49;43.62;100805.19;5011837;28;19913;-57
2022/08/06 23:14:55;;;;;;;;;;;;;;;28.41;43.93;100806.56;5011670;28;19913;-57
2022/08/06 23:17:41;;;;;;;;;;;;;;;28.30;43.93;100801.19;5014263;28;19914;-58
2022/08/06 23:20:26;;;;;;;;;;;;;;;28.49;43.92;100807.97;5012535;28;19913;-57
2022/08/06 23:23:11;;;;;;;;;;;;;;;28.52;43.99;100806.31;5011852;28;19913;-57
2022/08/06 23:25:55;;;;;;;;;;;;;;;28.52;43.75;100807.09;5022282;28;19913;-57